sensor_id;sensor_type;location;lat;lon;timestamp;pressure;altitude;pressure_sealevel;temperature;humidity
71567;BME280;59403;47.456;19.120;2022-12-31T00:01:15;101138.19;;;3.64;100.00
71567;BME280;59403;47.456;19.120;2022-12-31T00:03:42;101142.63;;;3.63;100.00
71567;BME280;59403;47.456;19.120;2022-12-31T00:06:15;101142.63;;;3.63;100.00
71567;BME280;59403;47.456;19.120;2022-12-31T00:08:42;101139.03;;;3.64;100.00
71567;BME280;59403;47.456;19.120;2022-12-31T00:11:11;101144.38;;;3.63;100.00
71567;BME280;59403;47.456;19.120;2022-12-31T00:13:38;101146.25;;;3.61;100.00
71567;BME280;59403;47.456;19.120;2022-12-31T00:16:07;101149.06;;;3.58;100.00
71567;BME280;59403;47.456;19.120;2022-12-31T00:18:34;101138.59;;;3.58;100.00
71567;BME280;59403;47.456;19.120;2022-12-31T00:21:04;101144.84;;;3.55;100.00
71567;BME280;59403;47.456;19.120;2022-12-31T00:23:32;101148.50;;;3.53;100.00
71567;BME280;59403;47.456;19.120;2022-12-31T00:26:02;101145.97;;;3.51;100.00
71567;BME280;59403;47.456;19.120;2022-12-31T00:28:30;101152.78;;;3.54;100.00
71567;BME280;59403;47.456;19.120;2022-12-31T00:31:04;101161.59;;;3.53;100.00
71567;BME280;59403;47.456;19.120;2022-12-31T00:33:30;101161.50;;;3.54;100.00
71567;BME280;59403;47.456;19.120;2022-12-31T00:36:06;101166.66;;;3.56;100.00
71567;BME280;59403;47.456;19.120;2022-12-31T00:38:34;101171.03;;;3.55;100.00
71567;BME280;59403;47.456;19.120;2022-12-31T00:41:01;101164.94;;;3.55;100.00
71567;BME280;59403;47.456;19.120;2022-12-31T00:43:33;101163.38;;;3.52;100.00
71567;BME280;59403;47.456;19.120;2022-12-31T00:46:00;101169.63;;;3.49;100.00
71567;BME280;59403;47.456;19.120;2022-12-31T00:48:28;101169.63;;;3.49;100.00
71567;BME280;59403;47.456;19.120;2022-12-31T00:50:55;101162.81;;;3.47;100.00
71567;BME280;59403;47.456;19.120;2022-12-31T00:53:23;101178.12;;;3.53;100.00
71567;BME280;59403;47.456;19.120;2022-12-31T00:55:50;101174.75;;;3.51;100.00
71567;BME280;59403;47.456;19.120;2022-12-31T00:58:17;101183.38;;;3.53;100.00
71567;BME280;59403;47.456;19.120;2022-12-31T01:00:45;101186.09;;;3.52;100.00
71567;BME280;59403;47.456;19.120;2022-12-31T01:03:12;101185.22;;;3.51;100.00
71567;BME280;59403;47.456;19.120;2022-12-31T01:05:39;101178.31;;;3.50;100.00
71567;BME280;59403;47.456;19.120;2022-12-31T01:08:06;101179.19;;;3.51;100.00
71567;BME280;59403;47.456;19.120;2022-12-31T01:10:33;101188.69;;;3.52;100.00
71567;BME280;59403;47.456;19.120;2022-12-31T01:13:17;101192.16;;;3.52;100.00
71567;BME280;59403;47.456;19.120;2022-12-31T01:15:46;101194.78;;;3.52;100.00
71567;BME280;59403;47.456;19.120;2022-12-31T01:18:12;101186.09;;;3.52;100.00
71567;BME280;59403;47.456;19.120;2022-12-31T01:20:41;101187.03;;;3.51;100.00
71567;BME280;59403;47.456;19.120;2022-12-31T01:23:09;101181.69;;;3.52;100.00
71567;BME280;59403;47.456;19.120;2022-12-31T01:25:38;101187.69;;;3.54;100.00
71567;BME280;59403;47.456;19.120;2022-12-31T01:28:06;101190.41;;;3.53;100.00
71567;BME280;59403;47.456;19.120;2022-12-31T01:30:37;101184.22;;;3.54;100.00
71567;BME280;59403;47.456;19.120;2022-12-31T01:33:05;101184.22;;;3.54;100.00
71567;BME280;59403;47.456;19.120;2022-12-31T01:35:33;101191.12;;;3.55;100.00
71567;BME280;59403;47.456;19.120;2022-12-31T01:38:00;101189.34;;;3.55;100.00
71567;BME280;59403;47.456;19.120;2022-12-31T01:40:27;101190.22;;;3.56;100.00
71567;BME280;59403;47.456;19.120;2022-12-31T01:42:54;101187.69;;;3.54;100.00
71567;BME280;59403;47.456;19.120;2022-12-31T01:45:23;101187.69;;;3.54;100.00
71567;BME280;59403;47.456;19.120;2022-12-31T01:47:53;101186.84;;;3.54;100.00
71567;BME280;59403;47.456;19.120;2022-12-31T01:50:26;101192.94;;;3.54;100.00
71567;BME280;59403;47.456;19.120;2022-12-31T01:52:56;101196.37;;;3.55;100.00
71567;BME280;59403;47.456;19.120;2022-12-31T01:55:27;101191.06;;;3.56;100.00
71567;BME280;59403;47.456;19.120;2022-12-31T01:57:58;101189.25;;;3.57;100.00
71567;BME280;59403;47.456;19.120;2022-12-31T02:00:26;101186.66;;;3.57;100.00
71567;BME280;59403;47.456;19.120;2022-12-31T02:02:53;101189.47;;;3.54;100.00
71567;BME280;59403;47.456;19.120;2022-12-31T02:05:26;101193.03;;;3.53;100.00
71567;BME280;59403;47.456;19.120;2022-12-31T02:07:55;101190.41;;;3.53;100.00
71567;BME280;59403;47.456;19.120;2022-12-31T02:10:22;101193.03;;;3.53;100.00
71567;BME280;59403;47.456;19.120;2022-12-31T02:12:50;101198.16;;;3.54;100.00
71567;BME280;59403;47.456;19.120;2022-12-31T02:15:21;101198.16;;;3.54;100.00
71567;BME280;59403;47.456;19.120;2022-12-31T02:17:55;101195.53;;;3.54;100.00
71567;BME280;59403;47.456;19.120;2022-12-31T02:20:52;101196.37;;;3.55;100.00
71567;BME280;59403;47.456;19.120;2022-12-31T02:26:41;101196.31;;;3.56;100.00
71567;BME280;59403;47.456;19.120;2022-12-31T02:32:27;101195.34;;;3.57;100.00
71567;BME280;59403;47.456;19.120;2022-12-31T02:34:58;101184.97;;;3.56;100.00
71567;BME280;59403;47.456;19.120;2022-12-31T02:37:27;101179.72;;;3.56;100.00
71567;BME280;59403;47.456;19.120;2022-12-31T02:39:56;101186.66;;;3.57;100.00
71567;BME280;59403;47.456;19.120;2022-12-31T02:42:23;101201.44;;;3.58;100.00
71567;BME280;59403;47.456;19.120;2022-12-31T02:44:50;101213.59;;;3.59;100.00
71567;BME280;59403;47.456;19.120;2022-12-31T02:47:26;101210.97;;;3.59;100.00
71567;BME280;59403;47.456;19.120;2022-12-31T02:50:07;101209.19;;;3.59;100.00
71567;BME280;59403;47.456;19.120;2022-12-31T02:52:45;101199.56;;;3.60;100.00
71567;BME280;59403;47.456;19.120;2022-12-31T02:55:23;101202.19;;;3.60;100.00
71567;BME280;59403;47.456;19.120;2022-12-31T02:57:56;101203.88;;;3.61;100.00
71567;BME280;59403;47.456;19.120;2022-12-31T03:00:24;101203.88;;;3.61;100.00
71567;BME280;59403;47.456;19.120;2022-12-31T03:03:10;101198.63;;;3.61;100.00
71567;BME280;59403;47.456;19.120;2022-12-31T03:05:40;101202.19;;;3.60;100.00
71567;BME280;59403;47.456;19.120;2022-12-31T03:08:08;101189.09;;;3.60;100.00
71567;BME280;59403;47.456;19.120;2022-12-31T03:10:35;101178.69;;;3.58;100.00
71567;BME280;59403;47.456;19.120;2022-12-31T03:13:02;101171.78;;;3.57;100.00
71567;BME280;59403;47.456;19.120;2022-12-31T03:15:30;101165.59;;;3.58;100.00
71567;BME280;59403;47.456;19.120;2022-12-31T03:17:59;101164.78;;;3.58;100.00
71567;BME280;59403;47.456;19.120;2022-12-31T03:20:30;101170.78;;;3.60;100.00
71567;BME280;59403;47.456;19.120;2022-12-31T03:23:18;101186.37;;;3.61;100.00
71567;BME280;59403;47.456;19.120;2022-12-31T03:25:45;101181.16;;;3.61;100.00
71567;BME280;59403;47.456;19.120;2022-12-31T03:28:13;101156.72;;;3.61;100.00
71567;BME280;59403;47.456;19.120;2022-12-31T03:30:42;101166.25;;;3.62;100.00
71567;BME280;59403;47.456;19.120;2022-12-31T03:33:09;101192.38;;;3.63;100.00
71567;BME280;59403;47.456;19.120;2022-12-31T03:35:39;101197.59;;;3.63;100.00
71567;BME280;59403;47.456;19.120;2022-12-31T03:38:07;101182.63;;;3.65;100.00
71567;BME280;59403;47.456;19.120;2022-12-31T03:40:37;101176.56;;;3.65;100.00
71567;BME280;59403;47.456;19.120;2022-12-31T03:43:05;101177.38;;;3.65;100.00
71567;BME280;59403;47.456;19.120;2022-12-31T03:45:32;101183.56;;;3.64;100.00
71567;BME280;59403;47.456;19.120;2022-12-31T03:47:59;101184.31;;;3.66;100.00
71567;BME280;59403;47.456;19.120;2022-12-31T03:50:26;101179.91;;;3.67;100.00
71567;BME280;59403;47.456;19.120;2022-12-31T03:52:55;101174.75;;;3.65;100.00
71567;BME280;59403;47.456;19.120;2022-12-31T03:55:22;101165.87;;;3.68;100.00
71567;BME280;59403;47.456;19.120;2022-12-31T03:57:49;101161.50;;;3.68;100.00
71567;BME280;59403;47.456;19.120;2022-12-31T04:00:18;101170.06;;;3.70;100.00
71567;BME280;59403;47.456;19.120;2022-12-31T04:02:46;101179.75;;;3.70;100.00
71567;BME280;59403;47.456;19.120;2022-12-31T04:05:13;101177.94;;;3.70;100.00
71567;BME280;59403;47.456;19.120;2022-12-31T04:07:41;101180.50;;;3.72;100.00
71567;BME280;59403;47.456;19.120;2022-12-31T04:10:11;101189.16;;;3.72;100.00
71567;BME280;59403;47.456;19.120;2022-12-31T04:12:38;101185.72;;;3.72;100.00
71567;BME280;59403;47.456;19.120;2022-12-31T04:15:07;101183.09;;;3.72;100.00
71567;BME280;59403;47.456;19.120;2022-12-31T04:17:34;101180.38;;;3.73;100.00
71567;BME280;59403;47.456;19.120;2022-12-31T04:20:01;101177.78;;;3.73;100.00
71567;BME280;59403;47.456;19.120;2022-12-31T04:22:28;101183.84;;;3.74;100.00
71567;BME280;59403;47.456;19.120;2022-12-31T04:24:54;101190.78;;;3.75;100.00
71567;BME280;59403;47.456;19.120;2022-12-31T04:27:23;101189.00;;;3.75;100.00
71567;BME280;59403;47.456;19.120;2022-12-31T04:29:49;101185.53;;;3.75;100.00
71567;BME280;59403;47.456;19.120;2022-12-31T04:32:16;101175.97;;;3.74;100.00
71567;BME280;59403;47.456;19.120;2022-12-31T04:34:43;101183.84;;;3.74;100.00
71567;BME280;59403;47.456;19.120;2022-12-31T04:37:10;101203.97;;;3.73;100.00
71567;BME280;59403;47.456;19.120;2022-12-31T04:39:37;101206.50;;;3.75;100.00
71567;BME280;59403;47.456;19.120;2022-12-31T04:42:03;101208.16;;;3.76;100.00
71567;BME280;59403;47.456;19.120;2022-12-31T04:44:32;101208.16;;;3.76;100.00
71567;BME280;59403;47.456;19.120;2022-12-31T04:46:59;101210.78;;;3.76;100.00
71567;BME280;59403;47.456;19.120;2022-12-31T04:49:26;101209.97;;;3.75;100.00
71567;BME280;59403;47.456;19.120;2022-12-31T04:51:53;101214.34;;;3.75;100.00
71567;BME280;59403;47.456;19.120;2022-12-31T04:54:20;101232.59;;;3.76;100.00
71567;BME280;59403;47.456;19.120;2022-12-31T04:56:47;101227.34;;;3.76;100.00
71567;BME280;59403;47.456;19.120;2022-12-31T04:59:13;101230.91;;;3.75;100.00
71567;BME280;59403;47.456;19.120;2022-12-31T05:01:42;101229.13;;;3.76;100.00
71567;BME280;59403;47.456;19.120;2022-12-31T05:04:08;101231.72;;;3.76;100.00
71567;BME280;59403;47.456;19.120;2022-12-31T05:06:35;101238.66;;;3.77;100.00
71567;BME280;59403;47.456;19.120;2022-12-31T05:09:02;101236.06;;;3.77;100.00
71567;BME280;59403;47.456;19.120;2022-12-31T05:11:29;101243.91;;;3.77;100.00
71567;BME280;59403;47.456;19.120;2022-12-31T05:13:56;101240.34;;;3.78;100.00
71567;BME280;59403;47.456;19.120;2022-12-31T05:16:23;101248.19;;;3.78;100.00
71567;BME280;59403;47.456;19.120;2022-12-31T05:18:51;101245.59;;;3.78;100.00
71567;BME280;59403;47.456;19.120;2022-12-31T05:21:19;101243.91;;;3.77;100.00
71567;BME280;59403;47.456;19.120;2022-12-31T05:23:47;101247.34;;;3.77;100.00
71567;BME280;59403;47.456;19.120;2022-12-31T05:26:14;101256.06;;;3.78;100.00
71567;BME280;59403;47.456;19.120;2022-12-31T05:28:41;101262.16;;;3.78;100.00
71567;BME280;59403;47.456;19.120;2022-12-31T05:31:08;101251.66;;;3.78;100.00
71567;BME280;59403;47.456;19.120;2022-12-31T05:33:34;101248.19;;;3.78;100.00
71567;BME280;59403;47.456;19.120;2022-12-31T05:36:03;101252.53;;;3.79;100.00
71567;BME280;59403;47.456;19.120;2022-12-31T05:38:30;101257.75;;;3.79;100.00
71567;BME280;59403;47.456;19.120;2022-12-31T05:41:01;101263.00;;;3.79;100.00
71567;BME280;59403;47.456;19.120;2022-12-31T05:43:29;101273.47;;;3.79;100.00
71567;BME280;59403;47.456;19.120;2022-12-31T05:45:59;101286.47;;;3.80;100.00
71567;BME280;59403;47.456;19.120;2022-12-31T05:48:26;101287.41;;;3.79;100.00
71567;BME280;59403;47.456;19.120;2022-12-31T05:50:53;101275.16;;;3.80;100.00
71567;BME280;59403;47.456;19.120;2022-12-31T05:53:21;101284.78;;;3.79;100.00
71567;BME280;59403;47.456;19.120;2022-12-31T05:55:48;101286.47;;;3.80;100.00
71567;BME280;59403;47.456;19.120;2022-12-31T05:58:15;101283.00;;;3.80;100.00
71567;BME280;59403;47.456;19.120;2022-12-31T06:00:42;101284.03;;;3.77;100.00
71567;BME280;59403;47.456;19.120;2022-12-31T06:03:09;101288.34;;;3.78;100.00
71567;BME280;59403;47.456;19.120;2022-12-31T06:05:39;101284.03;;;3.77;100.00
71567;BME280;59403;47.456;19.120;2022-12-31T06:08:06;101281.41;;;3.77;100.00
71567;BME280;59403;47.456;19.120;2022-12-31T06:10:34;101280.50;;;3.78;100.00
71567;BME280;59403;47.456;19.120;2022-12-31T06:13:01;101282.16;;;3.79;100.00
71567;BME280;59403;47.456;19.120;2022-12-31T06:15:28;101282.16;;;3.79;100.00
71567;BME280;59403;47.456;19.120;2022-12-31T06:17:54;101294.44;;;3.79;100.00
71567;BME280;59403;47.456;19.120;2022-12-31T06:20:21;101294.34;;;3.80;100.00
71567;BME280;59403;47.456;19.120;2022-12-31T06:22:48;101289.84;;;3.82;100.00
71567;BME280;59403;47.456;19.120;2022-12-31T06:25:15;101289.00;;;3.82;100.00
71567;BME280;59403;47.456;19.120;2022-12-31T06:27:43;101280.19;;;3.83;100.00
71567;BME280;59403;47.456;19.120;2022-12-31T06:30:11;101275.06;;;3.81;100.00
71567;BME280;59403;47.456;19.120;2022-12-31T06:32:38;101283.78;;;3.82;100.00
71567;BME280;59403;47.456;19.120;2022-12-31T06:35:07;101287.25;;;3.82;100.00
71567;BME280;59403;47.456;19.120;2022-12-31T06:37:34;101289.00;;;3.82;100.00
71567;BME280;59403;47.456;19.120;2022-12-31T06:40:00;101298.53;;;3.83;100.00
71567;BME280;59403;47.456;19.120;2022-12-31T06:42:28;101308.91;;;3.84;100.00
71567;BME280;59403;47.456;19.120;2022-12-31T06:44:57;101301.91;;;3.85;100.00
71567;BME280;59403;47.456;19.120;2022-12-31T06:47:24;101295.75;;;3.86;100.00
71567;BME280;59403;47.456;19.120;2022-12-31T06:49:51;101314.16;;;3.84;100.00
71567;BME280;59403;47.456;19.120;2022-12-31T06:52:18;101321.94;;;3.86;100.00
71567;BME280;59403;47.456;19.120;2022-12-31T06:54:45;101318.37;;;3.87;100.00
71567;BME280;59403;47.456;19.120;2022-12-31T06:57:13;101319.25;;;3.87;100.00
71567;BME280;59403;47.456;19.120;2022-12-31T06:59:40;101307.91;;;3.87;100.00
71567;BME280;59403;47.456;19.120;2022-12-31T07:02:27;101307.91;;;3.87;100.00
71567;BME280;59403;47.456;19.120;2022-12-31T07:05:20;101320.06;;;3.88;100.00
71567;BME280;59403;47.456;19.120;2022-12-31T07:07:57;101308.75;;;3.87;100.00
71567;BME280;59403;47.456;19.120;2022-12-31T07:10:37;101311.37;;;3.87;100.00
71567;BME280;59403;47.456;19.120;2022-12-31T07:13:19;101312.19;;;3.88;100.00
71567;BME280;59403;47.456;19.120;2022-12-31T07:15:59;101321.00;;;3.87;100.00
71567;BME280;59403;47.456;19.120;2022-12-31T07:18:35;101329.72;;;3.87;100.00
71567;BME280;59403;47.456;19.120;2022-12-31T07:21:09;101336.62;;;3.88;100.00
71567;BME280;59403;47.456;19.120;2022-12-31T07:23:38;101339.16;;;3.90;100.00
71567;BME280;59403;47.456;19.120;2022-12-31T07:26:12;101337.28;;;3.92;100.00
71567;BME280;59403;47.456;19.120;2022-12-31T07:28:52;101342.44;;;3.93;100.00
71567;BME280;59403;47.456;19.120;2022-12-31T07:31:32;101342.44;;;3.93;100.00
71567;BME280;59403;47.456;19.120;2022-12-31T07:34:09;101337.19;;;3.93;100.00
71567;BME280;59403;47.456;19.120;2022-12-31T07:36:49;101331.97;;;3.93;100.00
71567;BME280;59403;47.456;19.120;2022-12-31T07:39:28;101340.00;;;3.90;100.00
71567;BME280;59403;47.456;19.120;2022-12-31T07:42:04;101340.88;;;3.91;100.00
71567;BME280;59403;47.456;19.120;2022-12-31T07:44:43;101337.19;;;3.93;100.00
71567;BME280;59403;47.456;19.120;2022-12-31T07:47:22;101346.75;;;3.94;100.00
71567;BME280;59403;47.456;19.120;2022-12-31T07:49:51;101346.81;;;3.93;100.00
71567;BME280;59403;47.456;19.120;2022-12-31T07:52:19;101346.81;;;3.93;100.00
71567;BME280;59403;47.456;19.120;2022-12-31T07:54:46;101353.00;;;3.92;100.00
71567;BME280;59403;47.456;19.120;2022-12-31T07:57:15;101360.03;;;3.91;100.00
71567;BME280;59403;47.456;19.120;2022-12-31T07:59:50;101359.00;;;3.94;100.00
71567;BME280;59403;47.456;19.120;2022-12-31T08:02:27;101356.09;;;3.98;100.00
71567;BME280;59403;47.456;19.120;2022-12-31T08:05:05;101357.72;;;4.01;100.00
71567;BME280;59403;47.456;19.120;2022-12-31T08:07:38;101368.00;;;4.04;100.00
71567;BME280;59403;47.456;19.120;2022-12-31T08:10:11;101368.00;;;4.04;100.00
71567;BME280;59403;47.456;19.120;2022-12-31T08:12:40;101363.41;;;4.07;100.00
71567;BME280;59403;47.456;19.120;2022-12-31T08:15:12;101368.47;;;4.10;100.00
71567;BME280;59403;47.456;19.120;2022-12-31T08:17:39;101362.03;;;4.16;100.00
71567;BME280;59403;47.456;19.120;2022-12-31T08:20:11;101369.53;;;4.22;100.00
71567;BME280;59403;47.456;19.120;2022-12-31T08:23:07;101361.38;;;4.26;100.00
71567;BME280;59403;47.456;19.120;2022-12-31T08:25:44;101356.69;;;4.31;100.00
71567;BME280;59403;47.456;19.120;2022-12-31T08:28:20;101387.91;;;4.36;100.00
71567;BME280;59403;47.456;19.120;2022-12-31T08:30:56;101397.22;;;4.40;100.00
71567;BME280;59403;47.456;19.120;2022-12-31T08:33:29;101401.19;;;4.47;100.00
71567;BME280;59403;47.456;19.120;2022-12-31T08:36:10;101412.31;;;4.50;100.00
71567;BME280;59403;47.456;19.120;2022-12-31T08:38:44;101417.47;;;4.52;100.00
71567;BME280;59403;47.456;19.120;2022-12-31T08:41:17;101420.75;;;4.55;100.00
71567;BME280;59403;47.456;19.120;2022-12-31T08:43:53;101421.41;;;4.59;100.00
71567;BME280;59403;47.456;19.120;2022-12-31T08:46:27;101433.22;;;4.66;100.00
71567;BME280;59403;47.456;19.120;2022-12-31T08:48:55;101424.22;;;4.70;100.00
71567;BME280;59403;47.456;19.120;2022-12-31T08:51:25;101427.22;;;4.78;100.00
71567;BME280;59403;47.456;19.120;2022-12-31T08:53:53;101434.72;;;4.84;100.00
71567;BME280;59403;47.456;19.120;2022-12-31T08:56:26;101430.97;;;4.88;100.00
71567;BME280;59403;47.456;19.120;2022-12-31T08:59:03;101430.47;;;4.96;100.00
71567;BME280;59403;47.456;19.120;2022-12-31T09:01:40;101433.47;;;5.04;100.00
71567;BME280;59403;47.456;19.120;2022-12-31T09:04:19;101435.44;;;5.14;100.00
71567;BME280;59403;47.456;19.120;2022-12-31T09:06:55;101441.03;;;5.22;100.00
71567;BME280;59403;47.456;19.120;2022-12-31T09:09:31;101422.47;;;5.11;100.00
71567;BME280;59403;47.456;19.120;2022-12-31T09:12:06;101409.72;;;5.19;100.00
71567;BME280;59403;47.456;19.120;2022-12-31T09:14:42;101438.19;;;5.25;100.00
71567;BME280;59403;47.456;19.120;2022-12-31T09:17:27;101449.34;;;5.29;100.00
71567;BME280;59403;47.456;19.120;2022-12-31T09:19:58;101438.56;;;5.33;100.00
71567;BME280;59403;47.456;19.120;2022-12-31T09:22:26;101424.59;;;5.33;100.00
71567;BME280;59403;47.456;19.120;2022-12-31T09:24:54;101429.00;;;5.32;100.00
71567;BME280;59403;47.456;19.120;2022-12-31T09:27:24;101421.97;;;5.33;100.00
71567;BME280;59403;47.456;19.120;2022-12-31T09:29:59;101424.47;;;5.34;100.00
71567;BME280;59403;47.456;19.120;2022-12-31T09:32:35;101415.66;;;5.35;100.00
71567;BME280;59403;47.456;19.120;2022-12-31T09:35:13;101419.22;;;5.34;100.00
71567;BME280;59403;47.456;19.120;2022-12-31T09:37:47;101414.09;;;5.33;100.00
71567;BME280;59403;47.456;19.120;2022-12-31T09:40:32;101410.28;;;5.37;100.00
71567;BME280;59403;47.456;19.120;2022-12-31T09:43:38;101404.97;;;5.38;100.00
71567;BME280;59403;47.456;19.120;2022-12-31T09:46:36;101416.84;;;5.44;100.00
71567;BME280;59403;47.456;19.120;2022-12-31T09:49:34;101390.28;;;5.48;100.00
71567;BME280;59403;47.456;19.120;2022-12-31T09:52:14;101404.16;;;5.50;100.00
71567;BME280;59403;47.456;19.120;2022-12-31T09:54:52;101376.84;;;5.53;100.00
71567;BME280;59403;47.456;19.120;2022-12-31T09:57:32;101370.44;;;5.57;100.00
71567;BME280;59403;47.456;19.120;2022-12-31T10:00:08;101374.03;;;5.68;100.00
71567;BME280;59403;47.456;19.120;2022-12-31T10:02:51;101359.75;;;5.72;100.00
71567;BME280;59403;47.456;19.120;2022-12-31T10:05:42;101362.28;;;5.74;100.00
71567;BME280;59403;47.456;19.120;2022-12-31T10:08:17;101362.19;;;5.75;100.00
71567;BME280;59403;47.456;19.120;2022-12-31T10:10:51;101367.44;;;5.75;100.00
71567;BME280;59403;47.456;19.120;2022-12-31T10:19:50;101356.88;;;5.90;100.00
71567;BME280;59403;47.456;19.120;2022-12-31T10:25:32;101368.34;;;5.89;100.00
71567;BME280;59403;47.456;19.120;2022-12-31T10:28:13;101356.13;;;5.88;100.00
71567;BME280;59403;47.456;19.120;2022-12-31T10:30:48;101372.75;;;5.88;100.00
71567;BME280;59403;47.456;19.120;2022-12-31T10:33:30;101375.91;;;5.93;100.00
71567;BME280;59403;47.456;19.120;2022-12-31T10:36:05;101371.59;;;5.92;100.00
71567;BME280;59403;47.456;19.120;2022-12-31T10:38:46;101375.16;;;5.91;100.00
71567;BME280;59403;47.456;19.120;2022-12-31T10:41:51;101372.53;;;5.91;100.00
71567;BME280;59403;47.456;19.120;2022-12-31T10:45:00;101377.69;;;5.93;100.00
71567;BME280;59403;47.456;19.120;2022-12-31T10:47:46;101388.00;;;5.96;100.00
71567;BME280;59403;47.456;19.120;2022-12-31T10:50:37;101389.06;;;5.93;100.00
71567;BME280;59403;47.456;19.120;2022-12-31T10:53:33;101372.34;;;5.94;100.00
71567;BME280;59403;47.456;19.120;2022-12-31T11:05:56;101370.97;;;5.89;100.00
71567;BME280;59403;47.456;19.120;2022-12-31T11:08:45;101346.06;;;5.94;100.00
71567;BME280;59403;47.456;19.120;2022-12-31T11:11:27;101385.56;;;5.93;100.00
71567;BME280;59403;47.456;19.120;2022-12-31T11:17:00;101368.22;;;5.90;100.00
71567;BME280;59403;47.456;19.120;2022-12-31T11:19:36;101370.97;;;5.89;100.00
71567;BME280;59403;47.456;19.120;2022-12-31T11:22:21;101335.94;;;5.88;100.00
71567;BME280;59403;47.456;19.120;2022-12-31T11:25:03;101341.31;;;5.87;100.00
71567;BME280;59403;47.456;19.120;2022-12-31T11:27:52;101355.31;;;5.87;100.00
71567;BME280;59403;47.456;19.120;2022-12-31T11:30:31;101347.41;;;5.87;100.00
71567;BME280;59403;47.456;19.120;2022-12-31T11:33:13;101347.50;;;5.86;100.00
71567;BME280;59403;47.456;19.120;2022-12-31T11:35:54;101357.09;;;5.87;100.00
71567;BME280;59403;47.456;19.120;2022-12-31T11:38:29;101348.13;;;5.89;100.00
71567;BME280;59403;47.456;19.120;2022-12-31T11:41:02;101348.13;;;5.89;100.00
71567;BME280;59403;47.456;19.120;2022-12-31T11:43:34;101345.44;;;5.91;100.00
71567;BME280;59403;47.456;19.120;2022-12-31T11:46:22;101361.28;;;5.89;100.00
71567;BME280;59403;47.456;19.120;2022-12-31T11:49:06;101343.62;;;5.91;100.00
71567;BME280;59403;47.456;19.120;2022-12-31T11:51:56;101347.94;;;5.92;100.00
71567;BME280;59403;47.456;19.120;2022-12-31T11:54:48;101341.72;;;5.93;100.00
71567;BME280;59403;47.456;19.120;2022-12-31T11:57:24;101342.47;;;5.95;100.00
71567;BME280;59403;47.456;19.120;2022-12-31T11:59:56;101337.84;;;5.99;100.00
71567;BME280;59403;47.456;19.120;2022-12-31T12:02:29;101336.69;;;6.03;100.00
71567;BME280;59403;47.456;19.120;2022-12-31T12:04:59;101335.63;;;6.05;100.00
71567;BME280;59403;47.456;19.120;2022-12-31T12:07:27;101348.66;;;6.07;100.00
71567;BME280;59403;47.456;19.120;2022-12-31T12:09:59;101353.75;;;6.10;100.00
71567;BME280;59403;47.456;19.120;2022-12-31T12:12:37;101361.53;;;6.11;100.00
71567;BME280;59403;47.456;19.120;2022-12-31T12:15:07;101355.53;;;6.09;100.00
71567;BME280;59403;47.456;19.120;2022-12-31T12:17:35;101358.78;;;6.13;100.00
71567;BME280;59403;47.456;19.120;2022-12-31T12:20:14;101359.53;;;6.15;100.00
71567;BME280;59403;47.456;19.120;2022-12-31T12:22:48;101363.59;;;6.19;100.00
71567;BME280;59403;47.456;19.120;2022-12-31T12:25:18;101362.91;;;6.17;100.00
71567;BME280;59403;47.456;19.120;2022-12-31T12:27:46;101367.94;;;6.20;100.00
71567;BME280;59403;47.456;19.120;2022-12-31T12:30:19;101360.03;;;6.20;100.00
71567;BME280;59403;47.456;19.120;2022-12-31T12:32:51;101369.50;;;6.22;100.00
71567;BME280;59403;47.456;19.120;2022-12-31T12:35:23;101351.81;;;6.24;100.00
71567;BME280;59403;47.456;19.120;2022-12-31T12:37:58;101355.09;;;6.28;100.00
71567;BME280;59403;47.456;19.120;2022-12-31T12:40:28;101364.69;;;6.29;100.00
71567;BME280;59403;47.456;19.120;2022-12-31T12:42:56;101351.31;;;6.32;100.00
71567;BME280;59403;47.456;19.120;2022-12-31T12:45:25;101368.66;;;6.34;100.00
71567;BME280;59403;47.456;19.120;2022-12-31T12:47:54;101354.56;;;6.35;100.00
71567;BME280;59403;47.456;19.120;2022-12-31T12:50:24;101351.72;;;6.38;100.00
71567;BME280;59403;47.456;19.120;2022-12-31T12:53:08;101345.31;;;6.42;100.00
71567;BME280;59403;47.456;19.120;2022-12-31T12:55:45;101343.28;;;6.46;100.00
71567;BME280;59403;47.456;19.120;2022-12-31T12:58:24;101341.47;;;6.46;100.00
71567;BME280;59403;47.456;19.120;2022-12-31T13:01:01;101341.28;;;6.49;100.00
71567;BME280;59403;47.456;19.120;2022-12-31T13:06:49;101331.50;;;6.51;100.00
71567;BME280;59403;47.456;19.120;2022-12-31T13:09:33;101334.84;;;6.53;100.00
71567;BME280;59403;47.456;19.120;2022-12-31T13:12:13;101335.69;;;6.54;100.00
71567;BME280;59403;47.456;19.120;2022-12-31T13:14:47;101331.16;;;6.56;100.00
71567;BME280;59403;47.456;19.120;2022-12-31T13:17:33;101331.16;;;6.56;100.00
71567;BME280;59403;47.456;19.120;2022-12-31T13:20:13;101344.00;;;6.60;100.00
71567;BME280;59403;47.456;19.120;2022-12-31T13:22:44;101342.22;;;6.61;100.00
71567;BME280;59403;47.456;19.120;2022-12-31T13:25:23;101350.84;;;6.63;100.00
71567;BME280;59403;47.456;19.120;2022-12-31T13:27:56;101346.31;;;6.65;100.00
71567;BME280;59403;47.456;19.120;2022-12-31T13:30:32;101353.13;;;6.67;100.00
71567;BME280;59403;47.456;19.120;2022-12-31T13:33:04;101353.13;;;6.67;100.00
71567;BME280;59403;47.456;19.120;2022-12-31T13:35:37;101351.47;;;6.66;100.00
71567;BME280;59403;47.456;19.120;2022-12-31T13:38:12;101362.84;;;6.67;100.00
71567;BME280;59403;47.456;19.120;2022-12-31T13:40:45;101353.34;;;6.64;100.00